createdAt,value
2018-09-08T00:01:40.732Z,17.10
2018-09-08T00:04:09.531Z,17.10
2018-09-08T00:06:38.351Z,17.10
2018-09-08T00:09:08.988Z,17.10
2018-09-08T00:11:38.091Z,17.10
2018-09-08T00:14:07.018Z,17.00
2018-09-08T00:16:41.492Z,16.90
2018-09-08T00:19:15.853Z,16.90
2018-09-08T00:21:50.462Z,16.90
2018-09-08T00:24:24.701Z,16.90
2018-09-08T00:26:52.971Z,16.90
2018-09-08T00:29:25.984Z,16.90
2018-09-08T00:31:55.706Z,16.90
2018-09-08T00:34:24.343Z,16.80
2018-09-08T00:36:52.966Z,16.80
2018-09-08T00:39:21.698Z,16.80
2018-09-08T00:41:50.471Z,16.80
2018-09-08T00:44:19.631Z,16.70
2018-09-08T00:46:48.553Z,16.70
2018-09-08T00:49:17.503Z,16.70
2018-09-08T00:51:46.371Z,16.70
2018-09-08T00:54:15.578Z,16.60
2018-09-08T00:56:44.522Z,16.50
2018-09-08T00:59:13.328Z,16.50
2018-09-08T01:01:42.092Z,16.50
2018-09-08T01:04:12.878Z,16.50
2018-09-08T01:06:42.760Z,16.50
2018-09-08T01:09:11.716Z,16.40
2018-09-08T01:11:40.503Z,16.50
2018-09-08T01:14:09.223Z,16.50
2018-09-08T01:16:37.980Z,16.40
2018-09-08T01:19:06.891Z,16.30
2018-09-08T01:21:35.805Z,16.40
2018-09-08T01:24:04.637Z,16.30
2018-09-08T01:26:33.513Z,16.30
2018-09-08T01:29:02.298Z,16.30
2018-09-08T01:31:31.080Z,16.30
2018-09-08T01:33:59.832Z,16.30
2018-09-08T01:36:28.556Z,16.30
2018-09-08T01:38:57.211Z,16.40
2018-09-08T01:41:25.908Z,16.50
2018-09-08T01:43:54.563Z,16.50
2018-09-08T01:46:23.257Z,16.50
2018-09-08T01:48:51.878Z,16.50
2018-09-08T01:51:20.538Z,16.50
2018-09-08T01:53:49.183Z,16.40
2018-09-08T01:56:17.882Z,16.40
2018-09-08T01:58:46.651Z,16.40
2018-09-08T02:01:15.443Z,16.40
2018-09-08T02:03:44.351Z,16.40
2018-09-08T02:06:13.164Z,16.40
2018-09-08T02:08:42.013Z,16.40
2018-09-08T02:11:10.819Z,16.40
2018-09-08T02:13:39.530Z,16.40
2018-09-08T02:16:08.430Z,16.40
2018-09-08T02:18:37.146Z,16.40
2018-09-08T02:21:05.986Z,16.50
2018-09-08T02:23:34.767Z,16.50
2018-09-08T02:26:03.631Z,16.50
2018-09-08T02:28:33.090Z,16.60
2018-09-08T02:31:01.883Z,16.60
2018-09-08T02:33:31.433Z,16.60
2018-09-08T02:36:00.175Z,16.60
2018-09-08T02:38:28.803Z,16.60
2018-09-08T02:40:57.439Z,16.50
2018-09-08T02:43:26.035Z,16.50
2018-09-08T02:45:54.636Z,16.50
2018-09-08T02:48:23.264Z,16.60
2018-09-08T02:50:50.051Z,16.60
2018-09-08T02:53:16.839Z,16.60
2018-09-08T02:55:43.666Z,16.60
2018-09-08T02:58:10.459Z,16.60
2018-09-08T03:00:37.259Z,16.60
2018-09-08T03:03:04.039Z,16.50
2018-09-08T03:05:30.851Z,16.50
2018-09-08T03:07:57.626Z,16.40
2018-09-08T03:10:24.444Z,16.40
2018-09-08T03:12:51.283Z,16.30
2018-09-08T03:15:18.171Z,16.20
2018-09-08T03:17:44.964Z,16.20
2018-09-08T03:20:11.836Z,16.40
2018-09-08T03:22:38.699Z,16.60
2018-09-08T03:25:05.591Z,16.40
2018-09-08T03:27:32.448Z,16.30
2018-09-08T03:29:59.332Z,16.20
2018-09-08T03:32:26.188Z,16.10
2018-09-08T03:34:53.071Z,16.00
2018-09-08T03:37:19.932Z,16.00
2018-09-08T03:39:46.826Z,16.00
2018-09-08T03:42:13.733Z,16.00
2018-09-08T03:44:40.558Z,16.00
2018-09-08T03:47:07.365Z,15.90
2018-09-08T03:49:34.231Z,15.90
2018-09-08T03:52:01.103Z,15.90
2018-09-08T03:54:27.962Z,15.90
2018-09-08T03:56:54.865Z,15.90
2018-09-08T03:59:21.716Z,15.80
2018-09-08T04:01:48.543Z,15.80
2018-09-08T04:04:17.191Z,15.80
2018-09-08T04:06:45.868Z,15.80
2018-09-08T04:09:14.551Z,15.80
2018-09-08T04:11:43.248Z,15.80
2018-09-08T04:14:11.929Z,15.80
2018-09-08T04:16:40.708Z,15.70
2018-09-08T04:19:09.368Z,15.70
2018-09-08T04:21:38.068Z,15.70
2018-09-08T04:24:06.834Z,15.70
2018-09-08T04:26:35.568Z,15.70
2018-09-08T04:29:04.303Z,15.70
2018-09-08T04:31:33.028Z,15.80
2018-09-08T04:34:01.678Z,15.80
2018-09-08T04:36:30.401Z,15.80
2018-09-08T04:38:59.202Z,15.80
2018-09-08T04:41:28.099Z,15.60
2018-09-08T04:43:57.094Z,15.60
2018-09-08T04:46:26.258Z,15.60
2018-09-08T04:48:55.036Z,15.60
2018-09-08T04:51:23.855Z,15.60
2018-09-08T04:53:52.545Z,15.60
2018-09-08T04:56:21.256Z,15.60
2018-09-08T04:58:50.015Z,15.60
2018-09-08T05:01:18.650Z,15.60
2018-09-08T05:03:47.440Z,15.60
2018-09-08T05:06:16.139Z,15.50
2018-09-08T05:08:44.808Z,15.60
2018-09-08T05:11:14.048Z,15.60
2018-09-08T05:13:42.814Z,15.70
2018-09-08T05:16:11.667Z,15.80
2018-09-08T05:18:40.373Z,15.90
2018-09-08T05:21:09.111Z,15.80
2018-09-08T05:23:37.944Z,15.80
2018-09-08T05:26:06.798Z,16.00
2018-09-08T05:28:35.632Z,16.10
2018-09-08T05:31:04.483Z,16.30
2018-09-08T05:33:33.164Z,16.50
2018-09-08T05:36:01.819Z,16.50
2018-09-08T05:38:31.501Z,16.40
2018-09-08T05:41:00.217Z,16.20
2018-09-08T05:43:28.895Z,16.00
2018-09-08T05:45:57.581Z,16.10
2018-09-08T05:48:26.269Z,16.10
2018-09-08T05:50:54.932Z,16.10
2018-09-08T05:53:23.676Z,16.00
2018-09-08T05:55:52.319Z,16.10
2018-09-08T05:58:20.998Z,16.10
2018-09-08T06:00:49.731Z,16.10
2018-09-08T06:03:18.410Z,16.10
2018-09-08T06:05:47.131Z,16.10
2018-09-08T06:08:16.898Z,16.20
2018-09-08T06:10:45.681Z,16.40
2018-09-08T06:13:14.458Z,16.50
2018-09-08T06:15:43.311Z,16.60
2018-09-08T06:18:12.235Z,16.70
2018-09-08T06:20:41.014Z,16.80
2018-09-08T06:23:09.834Z,17.00
2018-09-08T06:25:38.598Z,17.10
2018-09-08T06:28:07.362Z,17.00
2018-09-08T06:30:36.071Z,16.90
2018-09-08T06:33:04.845Z,16.90
2018-09-08T06:35:33.663Z,17.00
2018-09-08T06:38:03.087Z,17.30
2018-09-08T06:40:31.887Z,17.60
2018-09-08T06:43:00.800Z,17.90
2018-09-08T06:45:29.610Z,18.20
2018-09-08T06:47:58.394Z,18.30
2018-09-08T06:50:27.089Z,18.40
2018-09-08T06:52:56.138Z,18.60
2018-09-08T06:55:24.833Z,18.80
2018-09-08T06:57:54.488Z,19.00
2018-09-08T07:00:23.886Z,19.30
2018-09-08T07:02:52.509Z,19.40
2018-09-08T07:05:21.168Z,19.60
2018-09-08T07:07:49.785Z,19.90
2018-09-08T07:10:18.487Z,19.90
2018-09-08T07:12:47.193Z,19.90
2018-09-08T07:15:15.918Z,20.00
2018-09-08T07:17:44.641Z,20.00
2018-09-08T07:20:13.353Z,20.20
2018-09-08T07:22:42.006Z,20.10
2018-09-08T07:25:11.016Z,20.00
2018-09-08T07:27:40.651Z,19.90
2018-09-08T07:30:09.455Z,20.20
2018-09-08T07:32:38.271Z,20.60
2018-09-08T07:35:07.688Z,20.80
2018-09-08T07:37:36.993Z,20.90
2018-09-08T07:40:06.426Z,21.10
2018-09-08T07:42:35.198Z,21.20
2018-09-08T07:45:04.016Z,21.40
2018-09-08T07:47:32.683Z,21.50
2018-09-08T07:50:01.337Z,21.80
2018-09-08T07:52:30.030Z,22.10
2018-09-08T07:54:58.718Z,22.30
2018-09-08T07:57:27.396Z,22.60
2018-09-08T07:59:56.741Z,23.20
2018-09-08T08:02:25.417Z,23.00
2018-09-08T08:04:54.315Z,23.20
2018-09-08T08:07:23.126Z,23.50
2018-09-08T08:09:51.881Z,23.70
2018-09-08T08:12:20.689Z,23.80
2018-09-08T08:14:50.381Z,24.10
2018-09-08T08:17:19.038Z,24.30
2018-09-08T08:19:47.667Z,24.40
2018-09-08T08:22:16.363Z,24.70
2018-09-08T08:24:45.136Z,25.30
2018-09-08T08:27:13.943Z,25.40
2018-09-08T08:29:42.813Z,25.50
2018-09-08T08:32:11.811Z,25.60
2018-09-08T08:34:41.211Z,26.30
2018-09-08T08:37:10.206Z,26.40
2018-09-08T08:39:39.736Z,26.30
2018-09-08T08:42:08.578Z,26.60
2018-09-08T08:44:37.377Z,26.60
2018-09-08T08:47:06.199Z,26.80
2018-09-08T08:49:35.057Z,27.00
2018-09-08T08:52:20.933Z,27.10
2018-09-08T08:54:54.346Z,26.90
2018-09-08T08:57:23.256Z,27.00
2018-09-08T08:59:53.943Z,27.40
2018-09-08T09:02:22.638Z,27.40
2018-09-08T09:04:51.417Z,27.40
2018-09-08T09:07:20.521Z,27.70
2018-09-08T09:09:49.875Z,27.90
2018-09-08T09:12:18.760Z,27.90
2018-09-08T09:14:47.646Z,28.00
2018-09-08T09:17:17.565Z,27.90
2018-09-08T09:20:03.081Z,28.10
2018-09-08T09:23:47.991Z,28.60
2018-09-08T09:26:16.864Z,28.90
2018-09-08T09:28:45.726Z,28.70
2018-09-08T09:31:14.747Z,28.40
2018-09-08T09:33:44.806Z,28.60
2018-09-08T09:36:13.678Z,28.80
2018-09-08T09:38:42.586Z,29.10
2018-09-08T09:41:11.439Z,29.20
2018-09-08T09:43:40.284Z,29.40
2018-09-08T09:46:09.157Z,29.40
2018-09-08T09:48:39.086Z,29.40
2018-09-08T09:51:07.911Z,29.70
2018-09-08T09:53:36.728Z,29.90
2018-09-08T09:56:05.486Z,29.50
2018-09-08T09:58:34.378Z,29.40
2018-09-08T10:01:08.716Z,29.70
2018-09-08T10:03:37.651Z,29.90
2018-09-08T10:06:06.516Z,30.00
2018-09-08T10:08:35.471Z,29.90
2018-09-08T10:11:04.218Z,29.80
2018-09-08T10:13:33.113Z,29.90
2018-09-08T10:16:01.841Z,30.50
2018-09-08T10:18:30.738Z,31.00
2018-09-08T10:21:00.058Z,30.60
2018-09-08T10:23:28.999Z,29.40
2018-09-08T10:25:57.823Z,28.60
2018-09-08T10:28:27.187Z,29.20
2018-09-08T10:30:56.519Z,29.80
2018-09-08T10:33:25.285Z,30.70
2018-09-08T10:35:54.496Z,31.00
2018-09-08T10:38:23.228Z,31.20
2018-09-08T10:40:52.032Z,31.00
2018-09-08T10:43:20.820Z,31.20
2018-09-08T10:45:50.316Z,31.60
2018-09-08T10:48:19.319Z,31.80
2018-09-08T10:50:48.161Z,31.80
2018-09-08T10:53:17.002Z,31.70
2018-09-08T10:55:45.733Z,31.90
2018-09-08T10:58:14.416Z,31.70
2018-09-08T11:00:43.218Z,31.80
2018-09-08T11:03:12.128Z,32.00
2018-09-08T11:05:40.881Z,32.30
2018-09-08T11:08:09.726Z,32.40
2018-09-08T11:10:38.503Z,31.60
2018-09-08T11:13:07.434Z,31.00
2018-09-08T11:15:36.609Z,30.80
2018-09-08T11:18:05.505Z,31.30
2018-09-08T11:20:34.389Z,32.00
2018-09-08T11:23:03.282Z,32.40
2018-09-08T11:25:32.387Z,32.70
2018-09-08T11:28:01.184Z,32.40
2018-09-08T11:30:30.124Z,33.10
2018-09-08T11:32:58.942Z,33.30
2018-09-08T11:35:28.321Z,33.20
2018-09-08T11:37:57.148Z,33.40
2018-09-08T11:40:25.954Z,33.20
2018-09-08T11:42:54.744Z,33.50
2018-09-08T11:45:23.599Z,33.80
2018-09-08T11:47:52.391Z,33.50
2018-09-08T11:50:21.265Z,33.40
2018-09-08T11:52:50.930Z,33.60
2018-09-08T11:55:19.757Z,33.50
2018-09-08T11:57:49.012Z,33.80
2018-09-08T12:00:17.824Z,33.50
2018-09-08T12:02:46.961Z,33.50
2018-09-08T12:05:15.640Z,33.40
2018-09-08T12:07:44.327Z,33.50
2018-09-08T12:10:13.150Z,33.40
2018-09-08T12:12:41.905Z,33.40
2018-09-08T12:15:10.779Z,33.60
2018-09-08T12:17:39.596Z,33.30
2018-09-08T12:20:08.403Z,34.10
2018-09-08T12:22:37.164Z,34.00
2018-09-08T12:25:05.933Z,33.90
2018-09-08T12:27:34.590Z,33.90
2018-09-08T12:30:04.592Z,33.90
2018-09-08T12:32:33.750Z,34.30
2018-09-08T12:35:02.642Z,34.20
2018-09-08T12:37:31.647Z,34.10
2018-09-08T12:40:00.854Z,34.00
2018-09-08T12:42:29.739Z,34.10
2018-09-08T12:44:58.611Z,33.90
2018-09-08T12:47:27.476Z,34.00
2018-09-08T12:49:56.335Z,34.50
2018-09-08T12:52:25.226Z,34.60
2018-09-08T12:54:54.027Z,34.10
2018-09-08T12:57:22.798Z,34.40
2018-09-08T12:59:51.501Z,34.30
2018-09-08T13:02:20.262Z,34.60
2018-09-08T13:04:49.001Z,34.70
2018-09-08T13:07:18.094Z,35.00
2018-09-08T13:09:47.516Z,35.30
2018-09-08T13:12:16.378Z,35.20
2018-09-08T13:14:45.141Z,34.70
2018-09-08T13:17:14.735Z,34.20
2018-09-08T13:19:43.470Z,33.80
2018-09-08T13:22:12.214Z,33.80
2018-09-08T13:24:41.053Z,33.50
2018-09-08T13:27:09.939Z,33.30
2018-09-08T13:29:38.781Z,33.00
2018-09-08T13:32:08.737Z,32.60
2018-09-08T13:34:37.593Z,32.40
2018-09-08T13:37:06.404Z,32.80
2018-09-08T13:39:35.373Z,33.10
2018-09-08T13:42:04.115Z,33.40
2018-09-08T13:44:33.036Z,33.20
2018-09-08T13:47:02.060Z,33.60
2018-09-08T13:49:30.846Z,33.50
2018-09-08T13:51:59.871Z,33.50
2018-09-08T13:54:29.219Z,33.50
2018-09-08T13:56:58.593Z,33.50
2018-09-08T13:59:27.384Z,33.50
2018-09-08T14:01:56.534Z,33.80
2018-09-08T14:04:25.359Z,33.30
2018-09-08T14:06:54.108Z,32.80
2018-09-08T14:09:23.596Z,32.80
2018-09-08T14:11:52.486Z,33.10
2018-09-08T14:14:21.248Z,32.80
2018-09-08T14:16:50.106Z,32.30
2018-09-08T14:19:19.393Z,32.20
2018-09-08T14:21:48.863Z,32.60
2018-09-08T14:24:18.379Z,32.70
2018-09-08T14:26:47.180Z,33.20
2018-09-08T14:29:16.071Z,33.50
2018-09-08T14:31:44.891Z,32.50
2018-09-08T14:34:13.746Z,32.10
2018-09-08T14:36:42.605Z,31.70
2018-09-08T14:39:11.403Z,32.10
2018-09-08T14:41:41.293Z,32.40
2018-09-08T14:44:10.170Z,32.40
2018-09-08T14:46:39.368Z,32.20
2018-09-08T14:49:08.265Z,32.40
2018-09-08T14:51:37.143Z,32.60
2018-09-08T14:54:06.101Z,32.80
2018-09-08T14:56:34.974Z,32.90
2018-09-08T14:59:03.896Z,32.90
2018-09-08T15:01:32.744Z,32.20
2018-09-08T15:04:01.551Z,32.50
2018-09-08T15:06:30.363Z,32.40
2018-09-08T15:08:59.063Z,32.40
2018-09-08T15:11:27.771Z,32.40
2018-09-08T15:13:56.513Z,32.60
2018-09-08T15:16:25.183Z,32.70
2018-09-08T15:18:53.858Z,32.80
2018-09-08T15:21:22.560Z,32.50
2018-09-08T15:23:51.279Z,32.40
2018-09-08T15:26:20.082Z,32.20
2018-09-08T15:28:48.864Z,31.90
2018-09-08T15:31:17.698Z,31.80
2018-09-08T15:33:47.220Z,31.80
2018-09-08T15:36:16.379Z,31.50
2018-09-08T15:38:45.419Z,31.60
2018-09-08T15:41:14.516Z,31.90
2018-09-08T15:43:43.261Z,32.00
2018-09-08T15:46:12.044Z,31.90
2018-09-08T15:48:41.533Z,31.80
2018-09-08T15:51:10.377Z,32.00
2018-09-08T15:53:39.206Z,32.00
2018-09-08T15:56:08.081Z,31.80
2018-09-08T15:58:37.007Z,31.60
2018-09-08T16:01:05.780Z,31.60
2018-09-08T16:03:34.505Z,31.50
2018-09-08T16:06:03.226Z,31.10
2018-09-08T16:08:31.973Z,31.00
2018-09-08T16:11:00.791Z,30.20
2018-09-08T16:13:29.562Z,29.30
2018-09-08T16:15:58.454Z,28.70
2018-09-08T16:18:27.263Z,28.00
2018-09-08T16:20:56.024Z,27.70
2018-09-08T16:23:24.718Z,27.20
2018-09-08T16:25:53.413Z,26.90
2018-09-08T16:28:22.119Z,26.90
2018-09-08T16:30:50.826Z,26.80
2018-09-08T16:33:19.567Z,26.60
2018-09-08T16:35:48.244Z,26.80
2018-09-08T16:38:16.923Z,26.80
2018-09-08T16:40:45.644Z,26.80
2018-09-08T16:43:14.404Z,26.70
2018-09-08T16:45:43.178Z,26.60
2018-09-08T16:48:11.966Z,26.40
2018-09-08T16:50:40.737Z,26.30
2018-09-08T16:53:09.382Z,26.20
2018-09-08T16:55:38.066Z,26.10
2018-09-08T16:58:06.861Z,26.00
2018-09-08T17:00:35.545Z,25.90
2018-09-08T17:03:04.266Z,25.70
2018-09-08T17:05:33.018Z,25.50
2018-09-08T17:08:02.085Z,25.40
2018-09-08T17:10:30.846Z,25.30
2018-09-08T17:12:59.631Z,25.30
2018-09-08T17:15:28.524Z,25.40
2018-09-08T17:17:57.266Z,25.40
2018-09-08T17:20:26.075Z,25.40
2018-09-08T17:22:54.883Z,25.20
2018-09-08T17:25:24.264Z,25.00
2018-09-08T17:27:53.081Z,24.80
2018-09-08T17:30:22.491Z,24.70
2018-09-08T17:32:51.297Z,24.80
2018-09-08T17:35:20.134Z,24.70
2018-09-08T17:37:48.958Z,24.50
2018-09-08T17:40:17.787Z,24.30
2018-09-08T17:42:46.598Z,24.20
2018-09-08T17:45:15.431Z,24.20
2018-09-08T17:47:44.230Z,24.30
2018-09-08T17:50:13.911Z,24.10
2018-09-08T17:52:42.607Z,23.80
2018-09-08T17:55:11.657Z,23.70
2018-09-08T17:57:40.589Z,23.50
2018-09-08T18:00:09.434Z,23.20
2018-09-08T18:02:38.304Z,23.00
2018-09-08T18:05:07.181Z,22.80
2018-09-08T18:07:36.927Z,22.80
2018-09-08T18:10:06.737Z,22.90
2018-09-08T18:12:35.896Z,22.70
2018-09-08T18:15:05.631Z,22.50
2018-09-08T18:17:34.440Z,22.40
2018-09-08T18:20:03.327Z,22.30
2018-09-08T18:22:32.322Z,22.20
2018-09-08T18:25:01.169Z,22.40
2018-09-08T18:27:29.894Z,22.70
2018-09-08T18:29:59.054Z,22.70
2018-09-08T18:32:28.774Z,22.80
2018-09-08T18:34:57.512Z,22.80
2018-09-08T18:37:26.282Z,22.70
2018-09-08T18:39:55.671Z,22.20
2018-09-08T18:42:24.462Z,22.00
2018-09-08T18:44:53.291Z,21.80
2018-09-08T18:47:22.003Z,21.60
2018-09-08T18:49:50.639Z,21.50
2018-09-08T18:52:19.325Z,21.30
2018-09-08T18:54:47.936Z,21.20
2018-09-08T18:57:16.770Z,21.10
2018-09-08T18:59:45.444Z,21.10
2018-09-08T19:02:14.252Z,21.00
2018-09-08T19:04:42.975Z,20.90
2018-09-08T19:07:11.619Z,20.80
2018-09-08T19:09:40.616Z,21.00
2018-09-08T19:12:09.331Z,21.10
2018-09-08T19:14:43.439Z,20.90
2018-09-08T19:17:12.204Z,20.80
2018-09-08T19:19:41.064Z,20.60
2018-09-08T19:22:09.868Z,20.60
2018-09-08T19:24:43.177Z,20.50
2018-09-08T19:27:12.764Z,20.40
2018-09-08T19:29:47.719Z,20.30
2018-09-08T19:32:17.333Z,20.50
2018-09-08T19:34:50.819Z,20.60
2018-09-08T19:37:19.841Z,20.70
2018-09-08T19:39:49.107Z,20.70
2018-09-08T19:42:17.852Z,20.50
2018-09-08T19:44:47.623Z,20.30
2018-09-08T19:47:21.914Z,20.20
2018-09-08T19:49:50.667Z,20.20
2018-09-08T19:52:24.967Z,20.00
2018-09-08T19:54:53.710Z,19.80
2018-09-08T19:57:27.824Z,19.70
2018-09-08T19:59:57.903Z,19.80
2018-09-08T20:02:28.227Z,19.80
2018-09-08T20:04:57.012Z,19.70
2018-09-08T20:07:26.167Z,19.70
2018-09-08T20:09:54.992Z,19.70
2018-09-08T20:12:23.832Z,19.60
2018-09-08T20:14:52.989Z,19.50
2018-09-08T20:17:21.728Z,19.30
2018-09-08T20:19:50.534Z,19.30
2018-09-08T20:22:19.153Z,19.00
2018-09-08T20:24:48.876Z,18.80
2018-09-08T20:27:17.895Z,18.70
2018-09-08T20:29:47.446Z,18.60
2018-09-08T20:32:16.062Z,18.60
2018-09-08T20:34:44.761Z,18.60
2018-09-08T20:37:13.417Z,18.60
2018-09-08T20:39:42.075Z,18.60
2018-09-08T20:42:10.791Z,18.60
2018-09-08T20:44:39.486Z,18.60
2018-09-08T20:47:09.085Z,18.50
2018-09-08T20:49:37.811Z,18.60
2018-09-08T20:52:07.608Z,18.60
2018-09-08T20:54:36.406Z,18.50
2018-09-08T20:57:05.915Z,18.50
2018-09-08T20:59:34.711Z,18.50
2018-09-08T21:02:03.536Z,18.50
2018-09-08T21:04:32.383Z,18.50
2018-09-08T21:07:01.138Z,18.40
2018-09-08T21:09:30.004Z,18.30
2018-09-08T21:11:59.455Z,18.30
2018-09-08T21:14:28.166Z,18.20
2018-09-08T21:16:56.830Z,18.20
2018-09-08T21:19:25.639Z,18.20
2018-09-08T21:21:54.351Z,18.20
2018-09-08T21:24:23.089Z,18.20
2018-09-08T21:26:51.741Z,18.10
2018-09-08T21:29:20.813Z,18.00
2018-09-08T21:31:49.689Z,17.90
2018-09-08T21:34:18.613Z,17.90
2018-09-08T21:36:47.444Z,17.80
2018-09-08T21:39:16.356Z,17.70
2018-09-08T21:41:45.192Z,17.70
2018-09-08T21:44:13.989Z,17.60
2018-09-08T21:46:42.783Z,17.60
2018-09-08T21:49:11.551Z,17.50
2018-09-08T21:51:40.606Z,17.40
2018-09-08T21:54:09.348Z,17.50
2018-09-08T21:56:38.052Z,17.60
2018-09-08T21:59:06.731Z,17.60
2018-09-08T22:01:35.540Z,17.60
2018-09-08T22:04:04.501Z,17.70
2018-09-08T22:06:33.489Z,17.70
2018-09-08T22:09:03.468Z,17.70
2018-09-08T22:11:32.268Z,17.60
2018-09-08T22:14:01.123Z,17.60
2018-09-08T22:16:29.976Z,17.50
2018-09-08T22:18:58.731Z,17.50
2018-09-08T22:21:27.501Z,17.50
2018-09-08T22:23:56.355Z,17.50
2018-09-08T22:26:25.313Z,17.50
2018-09-08T22:28:54.174Z,17.50
2018-09-08T22:31:22.946Z,17.30
2018-09-08T22:33:51.681Z,17.20
2018-09-08T22:36:20.434Z,17.10
2018-09-08T22:38:49.219Z,17.00
2018-09-08T22:41:18.141Z,17.00
2018-09-08T22:43:46.939Z,17.00
2018-09-08T22:46:15.793Z,17.00
2018-09-08T22:48:44.611Z,17.10
2018-09-08T22:51:13.571Z,17.00
2018-09-08T22:53:42.356Z,16.90
2018-09-08T22:56:11.227Z,16.90
2018-09-08T22:58:40.116Z,16.90
2018-09-08T23:01:08.858Z,17.00
2018-09-08T23:03:37.673Z,17.00
2018-09-08T23:06:06.578Z,17.00
2018-09-08T23:08:36.044Z,16.90
2018-09-08T23:11:04.956Z,16.90
2018-09-08T23:13:33.831Z,16.90
2018-09-08T23:16:02.724Z,16.90
2018-09-08T23:18:31.633Z,16.80
2018-09-08T23:21:00.532Z,16.80
2018-09-08T23:23:29.398Z,16.70
2018-09-08T23:25:58.229Z,16.70
2018-09-08T23:28:27.597Z,16.60
2018-09-08T23:30:56.488Z,16.60
2018-09-08T23:33:25.289Z,16.50
2018-09-08T23:35:54.103Z,16.50
2018-09-08T23:38:22.978Z,16.50
2018-09-08T23:40:51.859Z,16.50
2018-09-08T23:43:20.766Z,16.50
2018-09-08T23:45:49.703Z,16.50
2018-09-08T23:48:18.755Z,16.50
2018-09-08T23:50:47.691Z,16.60
2018-09-08T23:53:16.598Z,16.60
2018-09-08T23:55:45.476Z,16.60
2018-09-08T23:58:14.304Z,16.60
